sensor_id;sensor_type;location;lat;lon;timestamp;pressure;altitude;pressure_sealevel;temperature;humidity
74958;BME280;63741;42.624;26.276;2023-06-22T00:01:19;99946.28;;;22.03;67.09
74958;BME280;63741;42.624;26.276;2023-06-22T00:03:48;99951.47;;;21.89;66.56
74958;BME280;63741;42.624;26.276;2023-06-22T00:06:15;99952.78;;;21.93;66.44
74958;BME280;63741;42.624;26.276;2023-06-22T00:08:42;99954.13;;;22.12;65.91
74958;BME280;63741;42.624;26.276;2023-06-22T00:11:09;99957.69;;;22.05;65.92
74958;BME280;63741;42.624;26.276;2023-06-22T00:13:36;99963.47;;;22.02;66.29
74958;BME280;63741;42.624;26.276;2023-06-22T00:16:03;99961.06;;;22.07;66.68
74958;BME280;63741;42.624;26.276;2023-06-22T00:18:30;99963.09;;;22.05;66.63
74958;BME280;63741;42.624;26.276;2023-06-22T00:20:59;99964.94;;;22.04;66.51
74958;BME280;63741;42.624;26.276;2023-06-22T00:23:26;99960.59;;;22.03;67.04
74958;BME280;63741;42.624;26.276;2023-06-22T00:25:53;99960.81;;;22.16;66.02
74958;BME280;63741;42.624;26.276;2023-06-22T00:28:20;99958.66;;;22.27;66.19
74958;BME280;63741;42.624;26.276;2023-06-22T00:30:48;99956.34;;;22.38;65.68
74958;BME280;63741;42.624;26.276;2023-06-22T00:33:17;99956.06;;;22.33;65.24
74958;BME280;63741;42.624;26.276;2023-06-22T00:35:44;99955.66;;;22.07;66.63
74958;BME280;63741;42.624;26.276;2023-06-22T00:38:11;99957.19;;;22.24;66.41
74958;BME280;63741;42.624;26.276;2023-06-22T00:40:41;99957.25;;;22.31;64.83
74958;BME280;63741;42.624;26.276;2023-06-22T00:43:08;99950.31;;;22.22;65.69
74958;BME280;63741;42.624;26.276;2023-06-22T00:45:35;99939.44;;;22.30;64.77
74958;BME280;63741;42.624;26.276;2023-06-22T00:48:02;99936.81;;;22.07;66.39
74958;BME280;63741;42.624;26.276;2023-06-22T00:50:32;99931.44;;;22.22;65.44
74958;BME280;63741;42.624;26.276;2023-06-22T00:53:07;99944.63;;;22.02;66.68
74958;BME280;63741;42.624;26.276;2023-06-22T00:55:41;99956.31;;;22.09;66.20
74958;BME280;63741;42.624;26.276;2023-06-22T00:58:18;99950.25;;;21.92;66.45
74958;BME280;63741;42.624;26.276;2023-06-22T01:00:48;99943.41;;;21.89;66.83
74958;BME280;63741;42.624;26.276;2023-06-22T01:03:15;99940.44;;;21.84;66.37
74958;BME280;63741;42.624;26.276;2023-06-22T01:05:44;99938.75;;;21.83;66.80
74958;BME280;63741;42.624;26.276;2023-06-22T01:08:27;99938.16;;;21.73;67.00
74958;BME280;63741;42.624;26.276;2023-06-22T01:11:23;99932.97;;;21.72;67.16
74958;BME280;63741;42.624;26.276;2023-06-22T01:16:26;99936.66;;;21.56;67.57
74958;BME280;63741;42.624;26.276;2023-06-22T01:18:57;99929.41;;;21.56;67.71
74958;BME280;63741;42.624;26.276;2023-06-22T01:21:28;99930.91;;;21.59;67.79
74958;BME280;63741;42.624;26.276;2023-06-22T01:24:23;99930.34;;;21.49;68.24
74958;BME280;63741;42.624;26.276;2023-06-22T01:27:02;99941.41;;;21.68;67.17
74958;BME280;63741;42.624;26.276;2023-06-22T01:29:33;99936.66;;;21.56;68.76
74958;BME280;63741;42.624;26.276;2023-06-22T01:32:03;99940.09;;;21.64;67.99
74958;BME280;63741;42.624;26.276;2023-06-22T01:34:35;99940.44;;;21.84;67.16
74958;BME280;63741;42.624;26.276;2023-06-22T01:37:04;99937.25;;;21.81;67.28
74958;BME280;63741;42.624;26.276;2023-06-22T01:39:32;99929.81;;;21.68;68.29
74958;BME280;63741;42.624;26.276;2023-06-22T01:41:59;99920.34;;;21.72;67.32
74958;BME280;63741;42.624;26.276;2023-06-22T01:44:27;99919.78;;;21.62;68.34
74958;BME280;63741;42.624;26.276;2023-06-22T01:46:55;99921.94;;;21.66;67.80
74958;BME280;63741;42.624;26.276;2023-06-22T01:49:22;99916.72;;;21.65;67.75
74958;BME280;63741;42.624;26.276;2023-06-22T01:51:50;99924.97;;;21.78;67.95
74958;BME280;63741;42.624;26.276;2023-06-22T01:54:17;99924.34;;;21.76;67.09
74958;BME280;63741;42.624;26.276;2023-06-22T01:56:45;99920.47;;;21.93;66.34
74958;BME280;63741;42.624;26.276;2023-06-22T01:59:34;99918.88;;;21.99;67.10
74958;BME280;63741;42.624;26.276;2023-06-22T02:02:09;99930.69;;;22.13;65.71
74958;BME280;63741;42.624;26.276;2023-06-22T02:07:14;99927.34;;;22.11;65.83
74958;BME280;63741;42.624;26.276;2023-06-22T02:09:45;99921.75;;;22.27;65.31
74958;BME280;63741;42.624;26.276;2023-06-22T02:12:17;99921.22;;;22.17;65.57
74958;BME280;63741;42.624;26.276;2023-06-22T02:14:46;99923.44;;;22.13;65.38
74958;BME280;63741;42.624;26.276;2023-06-22T02:17:17;99932.34;;;21.99;66.31
74958;BME280;63741;42.624;26.276;2023-06-22T02:19:44;99927.63;;;22.01;65.88
74958;BME280;63741;42.624;26.276;2023-06-22T02:22:13;99930.47;;;21.70;67.62
74958;BME280;63741;42.624;26.276;2023-06-22T02:24:43;99922.25;;;21.49;69.04
74958;BME280;63741;42.624;26.276;2023-06-22T02:27:10;99923.38;;;21.54;68.43
74958;BME280;63741;42.624;26.276;2023-06-22T02:29:37;99931.50;;;21.31;69.33
74958;BME280;63741;42.624;26.276;2023-06-22T02:32:04;99927.16;;;21.45;69.67
74958;BME280;63741;42.624;26.276;2023-06-22T02:34:31;99932.28;;;21.55;69.12
74958;BME280;63741;42.624;26.276;2023-06-22T02:37:00;99928.47;;;21.49;69.74
74958;BME280;63741;42.624;26.276;2023-06-22T02:39:27;99933.25;;;21.62;69.10
74958;BME280;63741;42.624;26.276;2023-06-22T02:41:54;99938.09;;;21.66;68.98
74958;BME280;63741;42.624;26.276;2023-06-22T02:44:22;99936.31;;;21.74;68.97
74958;BME280;63741;42.624;26.276;2023-06-22T02:46:49;99938.63;;;21.62;69.76
74958;BME280;63741;42.624;26.276;2023-06-22T02:49:16;99934.50;;;21.51;70.86
74958;BME280;63741;42.624;26.276;2023-06-22T02:51:48;99938.69;;;21.54;70.79
74958;BME280;63741;42.624;26.276;2023-06-22T02:54:18;99942.25;;;21.69;70.34
74958;BME280;63741;42.624;26.276;2023-06-22T02:56:47;99951.63;;;21.58;71.34
74958;BME280;63741;42.624;26.276;2023-06-22T02:59:15;99950.09;;;21.56;71.43
74958;BME280;63741;42.624;26.276;2023-06-22T03:01:43;99942.03;;;21.56;71.19
74958;BME280;63741;42.624;26.276;2023-06-22T03:04:19;99949.31;;;21.70;70.36
74958;BME280;63741;42.624;26.276;2023-06-22T03:06:46;99957.34;;;21.55;70.87
74958;BME280;63741;42.624;26.276;2023-06-22T03:09:18;99962.66;;;21.63;70.79
74958;BME280;63741;42.624;26.276;2023-06-22T03:11:45;99961.84;;;21.78;69.46
74958;BME280;63741;42.624;26.276;2023-06-22T03:14:12;99962.94;;;21.54;70.39
74958;BME280;63741;42.624;26.276;2023-06-22T03:16:39;99956.72;;;21.68;70.05
74958;BME280;63741;42.624;26.276;2023-06-22T03:19:07;99952.13;;;21.91;67.87
74958;BME280;63741;42.624;26.276;2023-06-22T03:21:35;99952.38;;;21.96;67.20
74958;BME280;63741;42.624;26.276;2023-06-22T03:24:06;99963.22;;;21.74;67.79
74958;BME280;63741;42.624;26.276;2023-06-22T03:26:34;99957.06;;;21.88;68.08
74958;BME280;63741;42.624;26.276;2023-06-22T03:29:01;99967.84;;;21.88;68.21
74958;BME280;63741;42.624;26.276;2023-06-22T03:31:29;99964.75;;;21.76;68.07
74958;BME280;63741;42.624;26.276;2023-06-22T03:33:56;99963.81;;;21.84;67.83
74958;BME280;63741;42.624;26.276;2023-06-22T03:36:23;99964.81;;;21.83;68.75
74958;BME280;63741;42.624;26.276;2023-06-22T03:38:51;99965.56;;;21.91;67.78
74958;BME280;63741;42.624;26.276;2023-06-22T03:41:18;99963.72;;;21.77;68.10
74958;BME280;63741;42.624;26.276;2023-06-22T03:43:46;99976.03;;;21.57;68.77
74958;BME280;63741;42.624;26.276;2023-06-22T03:46:14;99970.47;;;21.73;68.75
74958;BME280;63741;42.624;26.276;2023-06-22T03:48:42;99970.38;;;21.66;68.69
74958;BME280;63741;42.624;26.276;2023-06-22T03:51:09;99968.38;;;21.98;68.06
74958;BME280;63741;42.624;26.276;2023-06-22T03:53:36;99972.00;;;21.90;68.71
74958;BME280;63741;42.624;26.276;2023-06-22T03:56:03;99973.78;;;21.83;68.63
74958;BME280;63741;42.624;26.276;2023-06-22T03:58:30;99979.72;;;21.93;68.97
74958;BME280;63741;42.624;26.276;2023-06-22T04:00:59;99973.31;;;21.94;68.60
74958;BME280;63741;42.624;26.276;2023-06-22T04:03:26;99974.47;;;22.15;67.90
74958;BME280;63741;42.624;26.276;2023-06-22T04:05:53;99974.34;;;22.08;68.13
74958;BME280;63741;42.624;26.276;2023-06-22T04:08:20;99972.31;;;22.40;67.29
74958;BME280;63741;42.624;26.276;2023-06-22T04:10:47;99967.75;;;22.40;67.56
74958;BME280;63741;42.624;26.276;2023-06-22T04:13:14;99972.88;;;22.20;69.13
74958;BME280;63741;42.624;26.276;2023-06-22T04:15:41;99976.69;;;22.26;68.75
74958;BME280;63741;42.624;26.276;2023-06-22T04:18:08;99977.22;;;22.07;69.88
74958;BME280;63741;42.624;26.276;2023-06-22T04:20:35;99976.06;;;22.24;68.98
74958;BME280;63741;42.624;26.276;2023-06-22T04:23:03;99983.00;;;22.18;69.40
74958;BME280;63741;42.624;26.276;2023-06-22T04:25:30;99985.84;;;22.02;69.54
74958;BME280;63741;42.624;26.276;2023-06-22T04:27:57;99986.69;;;22.03;70.31
74958;BME280;63741;42.624;26.276;2023-06-22T04:30:24;100002.16;;;22.24;69.00
74958;BME280;63741;42.624;26.276;2023-06-22T04:32:51;99996.03;;;22.15;68.91
74958;BME280;63741;42.624;26.276;2023-06-22T04:35:24;100001.13;;;22.39;68.95
74958;BME280;63741;42.624;26.276;2023-06-22T04:37:52;100005.94;;;22.59;68.90
74958;BME280;63741;42.624;26.276;2023-06-22T04:40:22;100014.19;;;22.72;68.86
74958;BME280;63741;42.624;26.276;2023-06-22T04:42:50;100005.63;;;22.83;67.40
74958;BME280;63741;42.624;26.276;2023-06-22T04:45:20;100013.75;;;22.68;69.25
74958;BME280;63741;42.624;26.276;2023-06-22T04:47:48;100014.84;;;22.74;68.11
74958;BME280;63741;42.624;26.276;2023-06-22T04:50:15;100007.59;;;22.89;67.18
74958;BME280;63741;42.624;26.276;2023-06-22T04:52:43;100014.56;;;22.84;67.25
74958;BME280;63741;42.624;26.276;2023-06-22T04:55:10;100017.91;;;23.01;66.98
74958;BME280;63741;42.624;26.276;2023-06-22T04:57:39;100008.88;;;23.08;67.22
74958;BME280;63741;42.624;26.276;2023-06-22T05:00:06;100026.19;;;23.35;65.97
74958;BME280;63741;42.624;26.276;2023-06-22T05:02:39;100023.06;;;23.60;65.78
74958;BME280;63741;42.624;26.276;2023-06-22T05:05:07;100016.50;;;23.90;64.78
74958;BME280;63741;42.624;26.276;2023-06-22T05:07:35;100022.19;;;23.74;65.11
74958;BME280;63741;42.624;26.276;2023-06-22T05:10:05;100025.09;;;24.01;64.13
74958;BME280;63741;42.624;26.276;2023-06-22T05:12:32;100027.31;;;23.90;64.23
74958;BME280;63741;42.624;26.276;2023-06-22T05:14:59;100025.06;;;23.94;64.28
74958;BME280;63741;42.624;26.276;2023-06-22T05:17:26;100032.31;;;24.21;62.37
74958;BME280;63741;42.624;26.276;2023-06-22T05:19:53;100029.59;;;24.50;61.61
74958;BME280;63741;42.624;26.276;2023-06-22T05:22:21;100034.22;;;24.56;61.81
74958;BME280;63741;42.624;26.276;2023-06-22T05:24:48;100027.34;;;24.60;61.31
74958;BME280;63741;42.624;26.276;2023-06-22T05:27:15;100031.25;;;24.51;61.36
74958;BME280;63741;42.624;26.276;2023-06-22T05:29:42;100038.00;;;24.68;60.40
74958;BME280;63741;42.624;26.276;2023-06-22T05:32:09;100031.41;;;24.77;59.97
74958;BME280;63741;42.624;26.276;2023-06-22T05:34:36;100031.47;;;24.49;61.52
74958;BME280;63741;42.624;26.276;2023-06-22T05:37:04;100040.56;;;24.41;61.79
74958;BME280;63741;42.624;26.276;2023-06-22T05:39:31;100041.16;;;24.71;60.64
74958;BME280;63741;42.624;26.276;2023-06-22T05:41:58;100038.22;;;24.66;60.92
74958;BME280;63741;42.624;26.276;2023-06-22T05:44:25;100036.63;;;24.79;60.86
74958;BME280;63741;42.624;26.276;2023-06-22T05:46:52;100033.91;;;24.79;60.85
74958;BME280;63741;42.624;26.276;2023-06-22T05:49:19;100032.41;;;25.11;61.61
74958;BME280;63741;42.624;26.276;2023-06-22T05:51:45;100032.41;;;25.11;60.40
74958;BME280;63741;42.624;26.276;2023-06-22T05:54:12;100044.31;;;25.23;59.73
74958;BME280;63741;42.624;26.276;2023-06-22T05:56:40;100045.97;;;25.24;58.73
74958;BME280;63741;42.624;26.276;2023-06-22T05:59:07;100041.63;;;25.36;59.08
74958;BME280;63741;42.624;26.276;2023-06-22T06:01:34;100046.19;;;25.36;57.87
74958;BME280;63741;42.624;26.276;2023-06-22T06:04:03;100045.38;;;25.49;58.32
74958;BME280;63741;42.624;26.276;2023-06-22T06:06:36;100060.41;;;25.64;57.93
74958;BME280;63741;42.624;26.276;2023-06-22T06:09:04;100045.25;;;25.77;57.11
74958;BME280;63741;42.624;26.276;2023-06-22T06:11:31;100038.97;;;25.89;56.10
74958;BME280;63741;42.624;26.276;2023-06-22T06:13:59;100044.00;;;25.92;56.51
74958;BME280;63741;42.624;26.276;2023-06-22T06:16:25;100039.22;;;25.94;55.38
74958;BME280;63741;42.624;26.276;2023-06-22T06:18:52;100036.28;;;25.83;56.80
74958;BME280;63741;42.624;26.276;2023-06-22T06:21:22;100040.66;;;25.90;57.35
74958;BME280;63741;42.624;26.276;2023-06-22T06:23:49;100036.28;;;25.83;56.53
74958;BME280;63741;42.624;26.276;2023-06-22T06:26:16;100031.69;;;25.83;57.06
74958;BME280;63741;42.624;26.276;2023-06-22T06:28:43;100030.44;;;25.92;55.46
74958;BME280;63741;42.624;26.276;2023-06-22T06:31:10;100031.06;;;26.01;56.33
74958;BME280;63741;42.624;26.276;2023-06-22T06:33:39;100032.50;;;26.17;54.73
74958;BME280;63741;42.624;26.276;2023-06-22T06:36:06;100031.88;;;26.15;54.38
74958;BME280;63741;42.624;26.276;2023-06-22T06:38:35;100028.34;;;26.14;54.00
74958;BME280;63741;42.624;26.276;2023-06-22T06:41:02;100023.69;;;26.41;54.08
74958;BME280;63741;42.624;26.276;2023-06-22T06:43:29;100024.50;;;26.62;52.87
74958;BME280;63741;42.624;26.276;2023-06-22T06:45:55;100028.69;;;26.58;53.32
74958;BME280;63741;42.624;26.276;2023-06-22T06:48:22;100024.69;;;26.60;53.02
74958;BME280;63741;42.624;26.276;2023-06-22T06:50:49;100022.03;;;26.54;53.18
74958;BME280;63741;42.624;26.276;2023-06-22T06:53:16;100021.84;;;26.49;52.25
74958;BME280;63741;42.624;26.276;2023-06-22T06:55:43;100024.28;;;26.63;52.40
74958;BME280;63741;42.624;26.276;2023-06-22T06:58:12;100024.09;;;27.03;51.39
74958;BME280;63741;42.624;26.276;2023-06-22T07:00:40;100030.97;;;27.12;51.74
74958;BME280;63741;42.624;26.276;2023-06-22T07:03:08;100024.28;;;27.08;50.43
74958;BME280;63741;42.624;26.276;2023-06-22T07:05:35;100026.63;;;27.11;51.31
74958;BME280;63741;42.624;26.276;2023-06-22T07:08:02;100025.06;;;27.22;51.39
74958;BME280;63741;42.624;26.276;2023-06-22T07:10:29;100020.63;;;27.34;49.72
74958;BME280;63741;42.624;26.276;2023-06-22T07:12:57;100018.97;;;27.27;49.28
74958;BME280;63741;42.624;26.276;2023-06-22T07:15:24;100018.47;;;27.11;49.06
74958;BME280;63741;42.624;26.276;2023-06-22T07:17:51;100020.03;;;27.26;49.34
74958;BME280;63741;42.624;26.276;2023-06-22T07:20:18;100015.25;;;27.21;48.51
74958;BME280;63741;42.624;26.276;2023-06-22T07:22:46;100017.31;;;27.26;49.62
74958;BME280;63741;42.624;26.276;2023-06-22T07:25:13;100011.94;;;27.51;49.19
74958;BME280;63741;42.624;26.276;2023-06-22T07:27:46;100001.94;;;27.76;48.81
74958;BME280;63741;42.624;26.276;2023-06-22T07:30:14;100001.25;;;27.81;48.84
74958;BME280;63741;42.624;26.276;2023-06-22T07:32:41;100008.75;;;27.85;48.09
74958;BME280;63741;42.624;26.276;2023-06-22T07:35:08;100009.22;;;27.82;48.65
74958;BME280;63741;42.624;26.276;2023-06-22T07:37:35;100012.00;;;27.94;47.22
74958;BME280;63741;42.624;26.276;2023-06-22T07:40:02;100008.50;;;28.12;47.57
74958;BME280;63741;42.624;26.276;2023-06-22T07:42:33;100014.47;;;28.45;46.91
74958;BME280;63741;42.624;26.276;2023-06-22T07:45:00;100021.22;;;28.18;46.26
74958;BME280;63741;42.624;26.276;2023-06-22T07:47:27;100023.41;;;28.28;46.14
74958;BME280;63741;42.624;26.276;2023-06-22T07:49:55;100018.47;;;28.61;47.92
74958;BME280;63741;42.624;26.276;2023-06-22T07:52:24;100017.94;;;28.71;47.36
74958;BME280;63741;42.624;26.276;2023-06-22T07:54:52;100013.69;;;28.75;47.19
74958;BME280;63741;42.624;26.276;2023-06-22T07:57:20;100011.91;;;28.51;45.64
74958;BME280;63741;42.624;26.276;2023-06-22T07:59:47;100004.63;;;28.81;45.12
74958;BME280;63741;42.624;26.276;2023-06-22T08:02:14;100012.53;;;29.01;46.06
74958;BME280;63741;42.624;26.276;2023-06-22T08:04:41;100009.75;;;29.19;44.66
74958;BME280;63741;42.624;26.276;2023-06-22T08:07:08;100007.00;;;29.08;44.11
74958;BME280;63741;42.624;26.276;2023-06-22T08:09:36;100007.59;;;29.10;44.50
74958;BME280;63741;42.624;26.276;2023-06-22T08:12:03;100012.47;;;29.19;45.47
74958;BME280;63741;42.624;26.276;2023-06-22T08:14:30;100013.66;;;29.12;45.39
74958;BME280;63741;42.624;26.276;2023-06-22T08:16:57;100007.91;;;29.20;44.32
74958;BME280;63741;42.624;26.276;2023-06-22T08:19:24;100013.28;;;29.50;44.99
74958;BME280;63741;42.624;26.276;2023-06-22T08:21:51;100015.00;;;29.63;43.35
74958;BME280;63741;42.624;26.276;2023-06-22T08:24:18;100003.69;;;29.48;43.01
74958;BME280;63741;42.624;26.276;2023-06-22T08:26:45;100007.72;;;29.45;42.93
74958;BME280;63741;42.624;26.276;2023-06-22T08:29:12;100002.09;;;29.58;43.51
74958;BME280;63741;42.624;26.276;2023-06-22T08:31:39;99998.06;;;29.73;42.41
74958;BME280;63741;42.624;26.276;2023-06-22T08:34:06;100011.97;;;29.94;42.19
74958;BME280;63741;42.624;26.276;2023-06-22T08:36:33;100004.97;;;30.10;43.16
74958;BME280;63741;42.624;26.276;2023-06-22T08:39:04;99994.91;;;29.87;41.35
74958;BME280;63741;42.624;26.276;2023-06-22T08:41:31;100002.63;;;30.14;42.65
74958;BME280;63741;42.624;26.276;2023-06-22T08:43:58;99990.59;;;30.38;41.54
74958;BME280;63741;42.624;26.276;2023-06-22T08:46:25;99998.09;;;30.31;42.29
74958;BME280;63741;42.624;26.276;2023-06-22T08:48:57;99995.59;;;29.94;41.31
74958;BME280;63741;42.624;26.276;2023-06-22T08:51:24;100001.28;;;29.69;42.77
74958;BME280;63741;42.624;26.276;2023-06-22T08:53:51;100000.00;;;29.84;40.97
74958;BME280;63741;42.624;26.276;2023-06-22T08:56:18;100000.09;;;29.77;40.62
74958;BME280;63741;42.624;26.276;2023-06-22T08:58:45;100004.25;;;30.03;40.84
74958;BME280;63741;42.624;26.276;2023-06-22T09:01:12;99997.72;;;30.39;41.09
74958;BME280;63741;42.624;26.276;2023-06-22T09:03:42;100004.06;;;30.80;40.19
74958;BME280;63741;42.624;26.276;2023-06-22T09:06:09;100004.66;;;30.82;38.40
74958;BME280;63741;42.624;26.276;2023-06-22T09:08:36;100003.81;;;30.70;39.09
74958;BME280;63741;42.624;26.276;2023-06-22T09:11:03;100008.72;;;30.68;38.31
74958;BME280;63741;42.624;26.276;2023-06-22T09:13:31;100003.78;;;30.30;39.22
74958;BME280;63741;42.624;26.276;2023-06-22T09:15:58;99999.03;;;29.90;39.75
74958;BME280;63741;42.624;26.276;2023-06-22T09:18:25;100007.53;;;29.58;40.62
74958;BME280;63741;42.624;26.276;2023-06-22T09:20:52;100008.22;;;29.54;41.46
74958;BME280;63741;42.624;26.276;2023-06-22T09:23:19;99995.28;;;29.49;41.59
74958;BME280;63741;42.624;26.276;2023-06-22T09:25:46;99989.47;;;29.45;41.08
74958;BME280;63741;42.624;26.276;2023-06-22T09:28:14;99994.75;;;29.70;41.93
74958;BME280;63741;42.624;26.276;2023-06-22T09:30:45;100002.81;;;29.89;40.19
74958;BME280;63741;42.624;26.276;2023-06-22T09:33:12;100002.88;;;29.47;41.18
74958;BME280;63741;42.624;26.276;2023-06-22T09:35:39;99990.41;;;29.39;40.79
74958;BME280;63741;42.624;26.276;2023-06-22T09:38:05;99991.78;;;29.95;39.72
74958;BME280;63741;42.624;26.276;2023-06-22T09:40:32;99987.41;;;30.41;39.70
74958;BME280;63741;42.624;26.276;2023-06-22T09:43:02;99992.25;;;30.51;40.47
74958;BME280;63741;42.624;26.276;2023-06-22T09:45:29;99994.81;;;30.81;40.17
74958;BME280;63741;42.624;26.276;2023-06-22T09:47:56;99988.91;;;31.01;41.13
74958;BME280;63741;42.624;26.276;2023-06-22T09:50:23;99983.75;;;31.33;38.57
74958;BME280;63741;42.624;26.276;2023-06-22T09:52:50;99982.38;;;31.31;38.67
74958;BME280;63741;42.624;26.276;2023-06-22T09:55:22;99988.84;;;31.75;36.96
74958;BME280;63741;42.624;26.276;2023-06-22T09:57:49;99988.44;;;31.66;37.19
74958;BME280;63741;42.624;26.276;2023-06-22T10:00:16;99980.38;;;31.43;38.10
74958;BME280;63741;42.624;26.276;2023-06-22T10:02:44;99975.94;;;31.25;38.46
74958;BME280;63741;42.624;26.276;2023-06-22T10:05:11;99975.16;;;30.96;38.51
74958;BME280;63741;42.624;26.276;2023-06-22T10:07:39;99984.84;;;31.32;37.49
74958;BME280;63741;42.624;26.276;2023-06-22T10:10:10;99973.34;;;31.81;37.45
74958;BME280;63741;42.624;26.276;2023-06-22T10:12:41;99971.94;;;31.44;37.98
74958;BME280;63741;42.624;26.276;2023-06-22T10:15:10;99969.09;;;31.56;37.67
74958;BME280;63741;42.624;26.276;2023-06-22T10:17:37;99969.22;;;31.44;38.68
74958;BME280;63741;42.624;26.276;2023-06-22T10:20:06;99974.81;;;31.38;36.81
74958;BME280;63741;42.624;26.276;2023-06-22T10:22:44;99967.56;;;31.94;37.03
74958;BME280;63741;42.624;26.276;2023-06-22T10:25:12;99970.03;;;31.62;37.52
74958;BME280;63741;42.624;26.276;2023-06-22T10:27:40;99970.69;;;31.35;38.88
74958;BME280;63741;42.624;26.276;2023-06-22T10:30:11;99966.34;;;31.23;38.20
74958;BME280;63741;42.624;26.276;2023-06-22T10:32:42;99967.28;;;31.00;37.61
74958;BME280;63741;42.624;26.276;2023-06-22T10:35:10;99964.84;;;30.86;38.79
74958;BME280;63741;42.624;26.276;2023-06-22T10:37:40;99967.97;;;30.78;38.08
74958;BME280;63741;42.624;26.276;2023-06-22T10:40:13;99960.94;;;30.82;38.65
74958;BME280;63741;42.624;26.276;2023-06-22T10:42:42;99962.59;;;31.57;37.58
74958;BME280;63741;42.624;26.276;2023-06-22T10:45:09;99968.34;;;31.61;36.87
74958;BME280;63741;42.624;26.276;2023-06-22T10:47:36;99950.78;;;31.74;36.77
74958;BME280;63741;42.624;26.276;2023-06-22T10:50:04;99965.06;;;31.59;36.75
74958;BME280;63741;42.624;26.276;2023-06-22T10:52:31;99958.28;;;31.44;37.09
74958;BME280;63741;42.624;26.276;2023-06-22T10:54:58;99955.47;;;31.11;37.37
74958;BME280;63741;42.624;26.276;2023-06-22T10:57:25;99945.78;;;31.03;37.95
74958;BME280;63741;42.624;26.276;2023-06-22T10:59:52;99947.34;;;30.99;38.56
74958;BME280;63741;42.624;26.276;2023-06-22T11:02:19;99942.44;;;31.01;40.00
74958;BME280;63741;42.624;26.276;2023-06-22T11:04:46;99939.66;;;30.84;42.46
74958;BME280;63741;42.624;26.276;2023-06-22T11:07:15;99946.53;;;30.99;39.26
74958;BME280;63741;42.624;26.276;2023-06-22T11:09:45;99938.88;;;31.29;37.95
74958;BME280;63741;42.624;26.276;2023-06-22T11:12:12;99953.94;;;31.32;38.03
74958;BME280;63741;42.624;26.276;2023-06-22T11:14:39;99948.84;;;31.24;37.62
74958;BME280;63741;42.624;26.276;2023-06-22T11:17:06;99939.06;;;31.39;37.96
74958;BME280;63741;42.624;26.276;2023-06-22T11:19:33;99943.06;;;31.20;38.96
74958;BME280;63741;42.624;26.276;2023-06-22T11:22:00;99934.13;;;30.79;37.47
74958;BME280;63741;42.624;26.276;2023-06-22T11:24:27;99936.94;;;30.84;38.46
74958;BME280;63741;42.624;26.276;2023-06-22T11:26:54;99934.28;;;31.18;38.29
74958;BME280;63741;42.624;26.276;2023-06-22T11:29:24;99928.03;;;31.06;39.08
74958;BME280;63741;42.624;26.276;2023-06-22T11:32:03;99931.38;;;31.08;39.39
74958;BME280;63741;42.624;26.276;2023-06-22T11:34:30;99937.25;;;31.00;37.26
74958;BME280;63741;42.624;26.276;2023-06-22T11:36:58;99935.59;;;31.15;38.32
74958;BME280;63741;42.624;26.276;2023-06-22T11:39:25;99938.22;;;31.39;37.08
74958;BME280;63741;42.624;26.276;2023-06-22T11:42:07;99931.97;;;31.27;38.47
74958;BME280;63741;42.624;26.276;2023-06-22T11:44:34;99932.94;;;31.20;37.58
74958;BME280;63741;42.624;26.276;2023-06-22T11:47:01;99931.81;;;31.16;37.00
74958;BME280;63741;42.624;26.276;2023-06-22T11:49:31;99926.16;;;31.23;37.94
74958;BME280;63741;42.624;26.276;2023-06-22T11:51:58;99922.06;;;31.37;36.69
74958;BME280;63741;42.624;26.276;2023-06-22T11:54:25;99917.22;;;31.95;36.70
74958;BME280;63741;42.624;26.276;2023-06-22T11:56:52;99920.72;;;31.90;37.59
74958;BME280;63741;42.624;26.276;2023-06-22T11:59:19;99919.72;;;31.63;38.13
74958;BME280;63741;42.624;26.276;2023-06-22T12:01:47;99912.41;;;32.24;36.69
74958;BME280;63741;42.624;26.276;2023-06-22T12:04:15;99916.50;;;32.92;37.46
74958;BME280;63741;42.624;26.276;2023-06-22T12:06:42;99914.06;;;33.23;36.23
74958;BME280;63741;42.624;26.276;2023-06-22T12:09:10;99919.50;;;33.50;35.50
74958;BME280;63741;42.624;26.276;2023-06-22T12:11:37;99916.56;;;33.62;34.13
74958;BME280;63741;42.624;26.276;2023-06-22T12:14:04;99918.13;;;33.90;33.97
74958;BME280;63741;42.624;26.276;2023-06-22T12:16:31;99918.00;;;34.12;33.66
74958;BME280;63741;42.624;26.276;2023-06-22T12:18:58;99916.19;;;33.90;34.08
74958;BME280;63741;42.624;26.276;2023-06-22T12:21:24;99912.59;;;33.85;34.42
74958;BME280;63741;42.624;26.276;2023-06-22T12:23:51;99917.47;;;33.40;35.74
74958;BME280;63741;42.624;26.276;2023-06-22T12:26:18;99909.44;;;32.97;34.77
74958;BME280;63741;42.624;26.276;2023-06-22T12:28:45;99916.88;;;33.33;35.35
74958;BME280;63741;42.624;26.276;2023-06-22T12:31:14;99919.06;;;33.31;35.33
74958;BME280;63741;42.624;26.276;2023-06-22T12:33:41;99915.00;;;33.07;34.67
74958;BME280;63741;42.624;26.276;2023-06-22T12:36:08;99909.34;;;32.64;35.30
74958;BME280;63741;42.624;26.276;2023-06-22T12:38:35;99895.69;;;32.91;33.76
74958;BME280;63741;42.624;26.276;2023-06-22T12:41:02;99895.28;;;33.10;33.28
74958;BME280;63741;42.624;26.276;2023-06-22T12:43:29;99901.97;;;33.56;34.32
74958;BME280;63741;42.624;26.276;2023-06-22T12:45:58;99907.66;;;33.87;34.75
74958;BME280;63741;42.624;26.276;2023-06-22T12:48:26;99900.63;;;34.01;33.28
74958;BME280;63741;42.624;26.276;2023-06-22T12:50:54;99888.88;;;34.11;33.79
74958;BME280;63741;42.624;26.276;2023-06-22T12:53:21;99905.44;;;34.31;32.58
74958;BME280;63741;42.624;26.276;2023-06-22T12:55:50;99902.34;;;34.12;32.88